Time,TemperatureF,DewpointF,PressureIn,WindDirection,WindDirectionDegrees,WindSpeedMPH,WindSpeedGustMPH,Humidity,HourlyPrecipIn,Conditions,Clouds,dailyrainin,SolarRadiationWatts/m^2,SoftwareType,DateUTC
2013-03-22 00:03:00,17.2,6.8,30.10,West,273,0.0,0.0,63,0.00,CLR,,0.00,0.0,WeatherDisplay:10.37,2013-03-22 05:03:00,
2013-03-22 00:08:00,16.9,6.5,30.10,West,273,0.0,0.0,63,0.00,CLR,,0.00,0.0,WeatherDisplay:10.37,2013-03-22 05:08:00,
2013-03-22 00:13:00,16.5,6.4,30.10,West,273,0.0,0.0,64,0.00,CLR,,0.00,0.0,WeatherDisplay:10.37,2013-03-22 05:13:00,
2013-03-22 00:18:00,16.4,6.7,30.11,West,273,0.0,0.0,65,0.00,CLR,,0.00,0.0,WeatherDisplay:10.37,2013-03-22 05:18:00,
2013-03-22 00:23:00,16.2,6.5,30.11,West,273,0.0,0.0,65,0.00,CLR,,0.00,0.0,WeatherDisplay:10.37,2013-03-22 05:23:00,
2013-03-22 00:28:00,16.1,6.4,30.11,West,273,0.0,0.0,65,0.00,CLR,,0.00,0.0,WeatherDisplay:10.37,2013-03-22 05:28:00,
2013-03-22 00:33:00,15.7,6.3,30.11,West,273,0.0,0.0,66,0.00,CLR,,0.00,0.0,WeatherDisplay:10.37,2013-03-22 05:33:00,
2013-03-22 00:38:00,15.6,6.3,30.11,West,273,0.0,0.0,66,0.00,CLR,,0.00,0.0,WeatherDisplay:10.37,2013-03-22 05:38:00,
2013-03-22 00:43:00,15.4,6.1,30.11,West,273,0.0,0.0,66,0.00,CLR,,0.00,0.0,WeatherDisplay:10.37,2013-03-22 05:43:00,
2013-03-22 00:48:00,15.1,6.1,30.11,West,273,0.0,0.0,67,0.00,CLR,,0.00,0.0,WeatherDisplay:10.37,2013-03-22 05:48:00,
2013-03-22 00:53:00,14.9,5.9,30.11,West,273,0.0,0.0,67,0.00,CLR,,0.00,0.0,WeatherDisplay:10.37,2013-03-22 05:53:00,
2013-03-22 00:58:00,14.8,5.8,30.11,West,273,0.0,0.0,67,0.00,CLR,,0.00,0.0,WeatherDisplay:10.37,2013-03-22 05:58:00,
2013-03-22 01:03:00,14.6,6.0,30.11,West,273,0.0,0.0,68,0.00,CLR,,0.00,0.0,WeatherDisplay:10.37,2013-03-22 06:03:00,
2013-03-22 01:08:00,14.4,6.1,30.11,West,273,0.0,0.0,69,0.00,CLR,,0.00,0.0,WeatherDisplay:10.37,2013-03-22 06:08:00,
2013-03-22 01:13:00,14.4,6.1,30.11,West,273,0.0,0.0,69,0.00,CLR,,0.00,0.0,WeatherDisplay:10.37,2013-03-22 06:13:00,
2013-03-22 01:18:00,14.3,6.3,30.10,West,273,0.0,0.0,70,0.00,CLR,,0.00,0.0,WeatherDisplay:10.37,2013-03-22 06:18:00,
2013-03-22 01:23:00,14.1,6.1,30.10,West,273,0.0,0.0,70,0.00,CLR,,0.00,0.0,WeatherDisplay:10.37,2013-03-22 06:23:00,
2013-03-22 01:28:00,14.0,6.0,30.10,West,273,0.0,0.0,70,0.00,CLR,,0.00,0.0,WeatherDisplay:10.37,2013-03-22 06:28:00,
2013-03-22 01:33:00,13.8,5.8,30.10,West,273,0.0,0.0,70,0.00,CLR,,0.00,0.0,WeatherDisplay:10.37,2013-03-22 06:33:00,
2013-03-22 01:38:00,13.6,5.9,30.10,West,273,0.0,0.0,71,0.00,CLR,,0.00,0.0,WeatherDisplay:10.37,2013-03-22 06:38:00,
2013-03-22 01:43:00,13.5,5.8,30.10,West,273,0.0,0.0,71,0.00,CLR,,0.00,0.0,WeatherDisplay:10.37,2013-03-22 06:43:00,
2013-03-22 01:48:00,13.3,5.6,30.10,West,273,0.0,0.0,71,0.00,CLR,,0.00,0.0,WeatherDisplay:10.37,2013-03-22 06:48:00,
2013-03-22 01:53:00,13.3,5.6,30.10,West,273,0.0,0.0,71,0.00,CLR,,0.00,0.0,WeatherDisplay:10.37,2013-03-22 06:53:00,
2013-03-22 01:58:00,13.1,5.5,30.10,West,273,0.0,0.0,71,0.00,CLR,,0.00,0.0,WeatherDisplay:10.37,2013-03-22 06:58:00,
2013-03-22 02:03:00,12.9,5.3,30.10,West,273,0.0,0.0,71,0.00,CLR,,0.00,0.0,WeatherDisplay:10.37,2013-03-22 07:03:00,
2013-03-22 02:08:00,12.8,5.5,30.10,West,273,0.0,0.0,72,0.00,CLR,,0.00,0.0,WeatherDisplay:10.37,2013-03-22 07:08:00,
2013-03-22 02:13:00,12.9,5.6,30.10,West,273,0.0,0.0,72,0.00,CLR,,0.00,0.0,WeatherDisplay:10.37,2013-03-22 07:13:00,
2013-03-22 02:18:00,13.3,6.0,30.10,West,273,0.0,0.0,72,0.00,CLR,,0.00,0.0,WeatherDisplay:10.37,2013-03-22 07:18:00,
2013-03-22 02:23:00,13.5,6.1,30.10,West,273,0.0,0.0,72,0.00,CLR,,0.00,0.0,WeatherDisplay:10.37,2013-03-22 07:23:00,
2013-03-22 02:28:00,13.6,6.2,30.10,West,273,0.0,0.0,72,0.00,CLR,,0.00,0.0,WeatherDisplay:10.37,2013-03-22 07:28:00,
2013-03-22 02:33:00,13.8,6.4,30.10,West,273,0.0,0.0,72,0.00,CLR,,0.00,0.0,WeatherDisplay:10.37,2013-03-22 07:33:00,
2013-03-22 02:38:00,14.0,6.6,30.10,West,273,0.0,0.0,72,0.00,CLR,,0.00,0.0,WeatherDisplay:10.37,2013-03-22 07:38:00,
2013-03-22 02:43:00,14.0,6.6,30.10,West,273,0.0,0.0,72,0.00,CLR,,0.00,0.0,WeatherDisplay:10.37,2013-03-22 07:43:00,
2013-03-22 02:48:00,14.0,6.6,30.10,West,273,0.0,0.0,72,0.00,CLR,,0.00,0.0,WeatherDisplay:10.37,2013-03-22 07:48:00,
2013-03-22 02:53:00,13.8,6.4,30.10,West,273,0.0,0.0,72,0.00,CLR,,0.00,0.0,WeatherDisplay:10.37,2013-03-22 07:53:00,
2013-03-22 02:58:00,13.8,6.4,30.10,West,273,0.0,0.0,72,0.00,CLR,,0.00,0.0,WeatherDisplay:10.37,2013-03-22 07:58:00,
2013-03-22 03:03:00,14.0,6.6,30.10,West,273,0.0,0.0,72,0.00,CLR,,0.00,0.0,WeatherDisplay:10.37,2013-03-22 08:03:00,
2013-03-22 03:08:00,14.1,6.4,30.10,West,273,0.0,0.0,71,0.00,CLR,,0.00,0.0,WeatherDisplay:10.37,2013-03-22 08:08:00,
2013-03-22 03:13:00,14.0,6.3,30.10,West,273,0.0,0.0,71,0.00,CLR,,0.00,0.0,WeatherDisplay:10.37,2013-03-22 08:13:00,
2013-03-22 03:18:00,13.6,5.9,30.11,West,273,0.0,0.0,71,0.00,CLR,,0.00,0.0,WeatherDisplay:10.37,2013-03-22 08:18:00,
2013-03-22 03:23:00,13.5,5.8,30.11,West,273,0.0,0.0,71,0.00,CLR,,0.00,0.0,WeatherDisplay:10.37,2013-03-22 08:23:00,
2013-03-22 03:28:00,13.3,5.6,30.11,West,273,0.0,0.0,71,0.00,CLR,,0.00,0.0,WeatherDisplay:10.37,2013-03-22 08:28:00,
2013-03-22 03:33:00,13.1,5.1,30.10,West,273,0.0,0.0,70,0.00,CLR,,0.00,0.0,WeatherDisplay:10.37,2013-03-22 08:33:00,
2013-03-22 03:38:00,12.8,5.2,30.10,West,273,0.0,0.0,71,0.00,CLR,,0.00,0.0,WeatherDisplay:10.37,2013-03-22 08:38:00,
2013-03-22 03:43:00,12.6,5.0,30.10,West,273,0.0,0.0,71,0.00,CLR,,0.00,0.0,WeatherDisplay:10.37,2013-03-22 08:43:00,
2013-03-22 03:48:00,12.3,4.7,30.10,West,273,0.0,0.0,71,0.00,CLR,,0.00,0.0,WeatherDisplay:10.37,2013-03-22 08:48:00,
2013-03-22 03:53:00,11.9,4.3,30.10,West,273,0.0,0.0,71,0.00,CLR,,0.00,0.0,WeatherDisplay:10.37,2013-03-22 08:53:00,
2013-03-22 03:58:00,11.6,4.3,30.10,West,273,0.0,0.0,72,0.00,CLR,,0.00,0.0,WeatherDisplay:10.37,2013-03-22 08:58:00,
2013-03-22 04:03:00,11.4,4.4,30.10,West,273,0.0,0.0,73,0.00,CLR,,0.00,0.0,WeatherDisplay:10.37,2013-03-22 09:03:00,
2013-03-22 04:08:00,11.2,4.2,30.10,West,273,0.0,0.0,73,0.00,CLR,,0.00,0.0,WeatherDisplay:10.37,2013-03-22 09:08:00,
2013-03-22 04:13:00,11.1,4.4,30.10,West,273,0.0,0.0,74,0.00,CLR,,0.00,0.0,WeatherDisplay:10.37,2013-03-22 09:13:00,
2013-03-22 04:18:00,10.9,4.2,30.10,West,273,0.0,0.0,74,0.00,CLR,,0.00,0.0,WeatherDisplay:10.37,2013-03-22 09:18:00,
2013-03-22 04:23:00,10.5,3.8,30.10,West,273,0.0,0.0,74,0.00,CLR,,0.00,0.0,WeatherDisplay:10.37,2013-03-22 09:23:00,
2013-03-22 04:28:00,10.4,4.0,30.10,West,273,0.0,0.0,75,0.00,CLR,,0.00,0.0,WeatherDisplay:10.37,2013-03-22 09:28:00,
2013-03-22 04:33:00,10.2,4.1,30.10,West,273,0.0,0.0,76,0.00,CLR,,0.00,0.0,WeatherDisplay:10.37,2013-03-22 09:33:00,
2013-03-22 04:38:00,10.0,3.9,30.10,West,273,0.0,0.0,76,0.00,CLR,,0.00,0.0,WeatherDisplay:10.37,2013-03-22 09:38:00,
2013-03-22 04:43:00,9.9,3.8,30.10,West,273,0.0,0.0,76,0.00,CLR,,0.00,0.0,WeatherDisplay:10.37,2013-03-22 09:43:00,
2013-03-22 04:48:00,9.7,3.9,30.10,West,273,0.0,0.0,77,0.00,CLR,,0.00,0.0,WeatherDisplay:10.37,2013-03-22 09:48:00,
2013-03-22 04:53:00,9.3,3.5,30.10,West,273,0.0,0.0,77,0.00,CLR,,0.00,0.0,WeatherDisplay:10.37,2013-03-22 09:53:00,
2013-03-22 04:58:00,9.3,3.5,30.10,West,273,0.0,0.0,77,0.00,CLR,,0.00,0.0,WeatherDisplay:10.37,2013-03-22 09:58:00,
2013-03-22 05:03:00,9.2,3.4,30.10,West,273,0.0,0.0,77,0.00,CLR,,0.00,0.0,WeatherDisplay:10.37,2013-03-22 10:03:00,
2013-03-22 05:08:00,8.8,3.1,30.10,West,273,0.0,0.0,77,0.00,CLR,,0.00,0.0,WeatherDisplay:10.37,2013-03-22 10:08:00,
2013-03-22 05:13:00,8.6,3.1,30.10,West,273,0.0,0.0,78,0.00,CLR,,0.00,0.0,WeatherDisplay:10.37,2013-03-22 10:13:00,
2013-03-22 05:18:00,8.6,3.1,30.10,West,273,0.0,0.0,78,0.00,CLR,,0.00,0.0,WeatherDisplay:10.37,2013-03-22 10:18:00,
2013-03-22 05:23:00,8.6,3.1,30.10,West,273,0.0,0.0,78,0.00,CLR,,0.00,0.0,WeatherDisplay:10.37,2013-03-22 10:23:00,
2013-03-22 05:28:00,8.6,3.4,30.10,West,273,0.0,0.0,79,0.00,CLR,,0.00,0.0,WeatherDisplay:10.37,2013-03-22 10:28:00,
2013-03-22 05:33:00,8.6,3.4,30.10,West,273,0.0,0.0,79,0.00,CLR,,0.00,0.0,WeatherDisplay:10.37,2013-03-22 10:33:00,
2013-03-22 05:38:00,8.6,3.4,30.10,West,273,0.0,0.0,79,0.00,CLR,,0.00,0.0,WeatherDisplay:10.37,2013-03-22 10:38:00,
2013-03-22 05:43:00,8.4,3.2,30.10,West,273,0.0,0.0,79,0.00,CLR,,0.00,0.0,WeatherDisplay:10.37,2013-03-22 10:43:00,
2013-03-22 05:48:00,8.4,3.2,30.10,West,273,0.0,0.0,79,0.00,CLR,,0.00,0.0,WeatherDisplay:10.37,2013-03-22 10:48:00,
2013-03-22 05:53:00,8.4,3.5,30.10,West,273,0.0,0.0,80,0.00,CLR,,0.00,0.0,WeatherDisplay:10.37,2013-03-22 10:53:00,
2013-03-22 05:58:00,8.3,3.4,30.10,West,273,0.0,0.0,80,0.00,CLR,,0.00,0.0,WeatherDisplay:10.37,2013-03-22 10:58:00,
2013-03-22 06:03:00,8.3,3.4,30.11,West,273,0.0,0.0,80,0.00,CLR,,0.00,0.0,WeatherDisplay:10.37,2013-03-22 11:03:00,
2013-03-22 06:08:00,8.1,3.2,30.11,West,273,0.0,0.0,80,0.00,CLR,,0.00,0.0,WeatherDisplay:10.37,2013-03-22 11:08:00,
2013-03-22 06:13:00,8.1,3.2,30.11,West,273,0.0,0.0,80,0.00,CLR,,0.00,0.0,WeatherDisplay:10.37,2013-03-22 11:13:00,
2013-03-22 06:18:00,7.9,3.0,30.11,West,273,0.0,0.0,80,0.00,CLR,,0.00,0.0,WeatherDisplay:10.37,2013-03-22 11:18:00,
2013-03-22 06:23:00,7.7,2.8,30.11,West,273,0.0,0.0,80,0.00,CLR,,0.00,0.0,WeatherDisplay:10.37,2013-03-22 11:23:00,
2013-03-22 06:28:00,7.4,2.5,30.11,West,273,0.0,0.0,80,0.00,CLR,,0.00,0.0,WeatherDisplay:10.37,2013-03-22 11:28:00,
2013-03-22 06:33:00,7.2,2.3,30.11,West,273,0.0,0.0,80,0.00,CLR,,0.00,0.0,WeatherDisplay:10.37,2013-03-22 11:33:00,
2013-03-22 06:38:00,7.2,2.3,30.11,West,273,0.0,0.0,80,0.00,CLR,,0.00,0.0,WeatherDisplay:10.37,2013-03-22 11:38:00,
2013-03-22 06:43:00,7.2,2.3,30.11,West,273,0.0,0.0,80,0.00,CLR,,0.00,0.0,WeatherDisplay:10.37,2013-03-22 11:43:00,
2013-03-22 06:48:00,7.2,2.3,30.11,West,273,0.0,0.0,80,0.00,CLR,,0.00,0.0,WeatherDisplay:10.37,2013-03-22 11:48:00,
2013-03-22 06:53:00,7.0,2.1,30.11,West,273,0.0,0.0,80,0.00,CLR,,0.00,0.0,WeatherDisplay:10.37,2013-03-22 11:53:00,
2013-03-22 06:58:00,7.0,2.1,30.11,West,273,0.0,0.0,80,0.00,CLR,,0.00,5.0,WeatherDisplay:10.37,2013-03-22 11:58:00,
2013-03-22 07:03:00,6.9,2.0,30.10,West,273,0.0,0.0,80,0.00,CLR,,0.00,7.0,WeatherDisplay:10.37,2013-03-22 12:03:00,
2013-03-22 07:08:00,6.9,2.3,30.10,West,273,0.0,0.0,81,0.00,CLR,,0.00,9.0,WeatherDisplay:10.37,2013-03-22 12:08:00,
2013-03-22 07:13:00,6.9,2.3,30.10,West,273,0.0,0.0,81,0.00,CLR,,0.00,12.0,WeatherDisplay:10.37,2013-03-22 12:13:00,
2013-03-22 07:18:00,6.9,2.3,30.10,West,273,0.0,0.0,81,0.00,CLR,,0.00,14.0,WeatherDisplay:10.37,2013-03-22 12:18:00,
2013-03-22 07:23:00,6.9,2.3,30.10,West,273,0.0,0.0,81,0.00,CLR,,0.00,19.0,WeatherDisplay:10.37,2013-03-22 12:23:00,
2013-03-22 07:28:00,7.0,2.7,30.10,West,273,0.0,0.0,82,0.00,CLR,,0.00,28.0,WeatherDisplay:10.37,2013-03-22 12:28:00,
2013-03-22 07:33:00,7.2,2.9,30.10,West,273,0.0,0.0,82,0.00,CLR,,0.00,44.0,WeatherDisplay:10.37,2013-03-22 12:33:00,
2013-03-22 07:38:00,7.4,3.1,30.10,West,273,0.0,0.0,82,0.00,CLR,,0.00,49.0,WeatherDisplay:10.37,2013-03-22 12:38:00,
2013-03-22 07:43:00,7.6,3.5,30.10,West,273,0.0,0.0,83,0.00,CLR,,0.00,39.0,WeatherDisplay:10.37,2013-03-22 12:43:00,
2013-03-22 07:48:00,7.9,3.5,30.10,West,273,0.0,0.0,82,0.00,CLR,,0.00,83.0,WeatherDisplay:10.37,2013-03-22 12:48:00,
2013-03-22 07:53:00,8.4,4.3,30.10,West,273,0.0,0.0,83,0.00,CLR,,0.00,135.0,WeatherDisplay:10.37,2013-03-22 12:53:00,
2013-03-22 07:58:00,9.2,5.1,30.10,West,273,0.0,0.0,83,0.00,CLR,,0.00,178.0,WeatherDisplay:10.37,2013-03-22 12:58:00,
2013-03-22 08:03:00,10.0,5.6,30.10,West,273,0.0,0.0,82,0.00,CLR,,0.00,207.0,WeatherDisplay:10.37,2013-03-22 13:03:00,
2013-03-22 08:08:00,10.7,6.3,30.10,West,273,0.0,0.0,82,0.00,CLR,,0.00,225.0,WeatherDisplay:10.37,2013-03-22 13:08:00,
2013-03-22 08:13:00,11.4,6.4,30.10,West,273,0.0,0.0,80,0.00,CLR,,0.00,244.0,WeatherDisplay:10.37,2013-03-22 13:13:00,
2013-03-22 08:18:00,11.4,6.2,30.10,West,273,0.0,0.0,79,0.00,CLR,,0.00,260.0,WeatherDisplay:10.37,2013-03-22 13:18:00,
2013-03-22 08:23:00,11.9,6.6,30.10,West,273,0.4,1.2,79,0.00,CLR,,0.00,272.0,WeatherDisplay:10.37,2013-03-22 13:23:00,
2013-03-22 08:28:00,12.8,7.2,30.10,West,273,0.0,0.0,78,0.00,CLR,,0.00,283.0,WeatherDisplay:10.37,2013-03-22 13:28:00,
2013-03-22 08:34:00,13.3,7.4,30.11,West,273,0.0,1.2,77,0.00,CLR,,0.00,295.0,WeatherDisplay:10.37,2013-03-22 13:34:00,
2013-03-22 08:39:00,13.6,7.4,30.11,West,273,0.0,0.0,76,0.00,CLR,,0.00,313.0,WeatherDisplay:10.37,2013-03-22 13:39:00,
2013-03-22 08:44:00,14.1,7.6,30.11,West,273,0.0,0.0,75,0.00,CLR,,0.00,327.0,WeatherDisplay:10.37,2013-03-22 13:44:00,
2013-03-22 08:49:00,14.8,7.7,30.11,West,273,1.0,1.2,73,0.00,CLR,,0.00,345.0,WeatherDisplay:10.37,2013-03-22 13:49:00,
2013-03-22 08:54:00,15.2,7.8,30.11,West,274,0.0,0.0,72,0.00,CLR,,0.00,359.0,WeatherDisplay:10.37,2013-03-22 13:54:00,
2013-03-22 08:59:00,15.7,7.6,30.11,West,274,0.4,1.2,70,0.00,CLR,,0.00,373.0,WeatherDisplay:10.37,2013-03-22 13:59:00,
2013-03-22 09:04:00,15.9,7.5,30.11,West,273,0.1,2.3,69,0.00,CLR,,0.00,388.0,WeatherDisplay:10.37,2013-03-22 14:04:00,
2013-03-22 09:09:00,16.5,8.1,30.11,West,273,0.0,0.0,69,0.00,CLR,,0.00,404.0,WeatherDisplay:10.37,2013-03-22 14:09:00,
2013-03-22 09:14:00,17.0,7.9,30.11,West,273,0.0,0.0,67,0.00,CLR,,0.00,420.0,WeatherDisplay:10.37,2013-03-22 14:14:00,
2013-03-22 09:19:00,17.2,8.1,30.11,West,273,0.0,0.0,67,0.00,CLR,,0.00,436.0,WeatherDisplay:10.37,2013-03-22 14:19:00,
2013-03-22 09:24:00,17.5,8.1,30.11,West,274,0.3,1.2,66,0.00,CLR,,0.00,452.0,WeatherDisplay:10.37,2013-03-22 14:24:00,
2013-03-22 09:29:00,18.0,8.5,30.11,West,272,0.0,1.2,66,0.00,CLR,,0.00,466.0,WeatherDisplay:10.37,2013-03-22 14:29:00,
2013-03-22 09:34:00,18.6,8.8,30.11,NW,311,1.4,4.8,65,0.00,CLR,,0.00,480.0,WeatherDisplay:10.37,2013-03-22 14:34:00,
2013-03-22 09:39:00,19.2,9.0,30.11,NW,311,0.0,0.0,64,0.00,CLR,,0.00,494.0,WeatherDisplay:10.37,2013-03-22 14:39:00,
2013-03-22 09:44:00,19.9,9.3,30.11,NW,309,0.0,0.0,63,0.00,CLR,,0.00,510.0,WeatherDisplay:10.37,2013-03-22 14:44:00,
2013-03-22 09:49:00,20.6,9.6,30.11,NW,309,0.0,0.0,62,0.00,CLR,,0.00,526.0,WeatherDisplay:10.37,2013-03-22 14:49:00,
2013-03-22 09:54:00,20.3,9.3,30.11,WNW,291,0.0,2.3,62,0.00,CLR,,0.00,540.0,WeatherDisplay:10.37,2013-03-22 14:54:00,
2013-03-22 09:59:00,21.0,9.6,30.11,WNW,286,0.0,0.0,61,0.00,CLR,,0.00,552.0,WeatherDisplay:10.37,2013-03-22 14:59:00,
2013-03-22 10:04:00,20.8,9.1,30.12,West,275,0.9,3.5,60,0.00,CLR,,0.00,566.0,WeatherDisplay:10.37,2013-03-22 15:04:00,
2013-03-22 10:09:00,21.0,9.3,30.12,West,275,1.4,2.4,60,0.00,CLR,,0.00,578.0,WeatherDisplay:10.37,2013-03-22 15:09:00,
2013-03-22 10:14:00,21.1,9.4,30.12,West,275,0.0,1.2,60,0.00,CLR,,0.00,594.0,WeatherDisplay:10.37,2013-03-22 15:14:00,
2013-03-22 10:19:00,21.3,9.6,30.12,West,268,1.0,3.5,60,0.00,CLR,,0.00,605.0,WeatherDisplay:10.37,2013-03-22 15:19:00,
2013-03-22 10:24:00,21.6,9.5,30.12,WSW,255,0.0,2.3,59,0.00,CLR,,0.00,619.0,WeatherDisplay:10.37,2013-03-22 15:24:00,
2013-03-22 10:29:00,22.5,10.7,30.12,WSW,255,0.0,0.0,60,0.00,CLR,,0.00,633.0,WeatherDisplay:10.37,2013-03-22 15:29:00,
2013-03-22 10:34:00,22.4,10.6,30.12,West,261,0.0,1.2,60,0.00,CLR,,0.00,642.0,WeatherDisplay:10.37,2013-03-22 15:34:00,
2013-03-22 10:39:00,22.5,9.9,30.12,West,261,0.8,2.3,58,0.00,CLR,,0.00,652.0,WeatherDisplay:10.37,2013-03-22 15:39:00,
2013-03-22 10:44:00,23.0,10.0,30.12,West,261,0.0,2.3,57,0.00,CLR,,0.00,663.0,WeatherDisplay:10.37,2013-03-22 15:44:00,
2013-03-22 10:49:00,23.9,10.9,30.12,West,261,0.0,0.0,57,0.00,CLR,,0.00,675.0,WeatherDisplay:10.37,2013-03-22 15:49:00,
2013-03-22 10:54:00,24.1,10.6,30.12,West,261,0.6,2.4,56,0.00,CLR,,0.00,687.0,WeatherDisplay:10.37,2013-03-22 15:54:00,
2013-03-22 10:59:00,24.5,11.0,30.12,West,261,0.0,0.0,56,0.00,CLR,,0.00,698.0,WeatherDisplay:10.37,2013-03-22 15:59:00,
2013-03-22 11:04:00,24.7,11.6,30.11,WNW,288,0.0,2.3,57,0.00,CLR,,0.00,707.0,WeatherDisplay:10.37,2013-03-22 16:04:00,
2013-03-22 11:09:00,24.8,10.5,30.11,WNW,286,1.0,2.3,54,0.00,CLR,,0.00,715.0,WeatherDisplay:10.37,2013-03-22 16:09:00,
2013-03-22 11:14:00,25.4,11.5,30.11,West,280,0.0,1.2,55,0.00,CLR,,0.00,724.0,WeatherDisplay:10.37,2013-03-22 16:14:00,
2013-03-22 11:19:00,25.6,10.8,30.12,SW,224,0.0,3.5,53,0.00,CLR,,0.00,737.0,WeatherDisplay:10.37,2013-03-22 16:19:00,
2013-03-22 11:24:00,25.7,11.7,30.12,WSW,250,0.0,0.0,55,0.00,CLR,,0.00,742.0,WeatherDisplay:10.37,2013-03-22 16:24:00,
2013-03-22 11:29:00,26.3,11.0,30.12,WSW,248,0.0,0.0,52,0.00,CLR,,0.00,749.0,WeatherDisplay:10.37,2013-03-22 16:29:00,
2013-03-22 11:34:00,26.7,11.0,30.12,West,259,0.5,2.3,51,0.00,CLR,,0.00,758.0,WeatherDisplay:10.37,2013-03-22 16:34:00,
2013-03-22 11:39:00,27.8,12.9,30.12,West,259,0.0,0.0,53,0.00,CLR,,0.00,766.0,WeatherDisplay:10.37,2013-03-22 16:39:00,
2013-03-22 11:44:00,27.3,10.6,30.12,WSW,246,0.7,2.3,49,0.00,CLR,,0.00,773.0,WeatherDisplay:10.37,2013-03-22 16:44:00,
2013-03-22 11:49:00,28.1,11.4,30.12,SW,219,0.0,1.2,49,0.00,CLR,,0.00,782.0,WeatherDisplay:10.37,2013-03-22 16:49:00,
2013-03-22 11:54:00,28.2,11.5,30.12,SSW,204,2.4,4.8,49,0.00,CLR,,0.00,784.0,WeatherDisplay:10.37,2013-03-22 16:54:00,
2013-03-22 11:59:00,27.3,12.0,30.12,SSW,207,5.4,5.8,52,0.01,RA,,0.01,789.0,WeatherDisplay:10.37,2013-03-22 16:59:00,
2013-03-22 12:04:00,27.9,11.6,30.12,South,183,1.6,2.4,50,0.01,RA,,0.01,793.0,WeatherDisplay:10.37,2013-03-22 17:04:00,
2013-03-22 12:09:00,28.1,11.4,30.12,SE,146,2.4,6.0,49,0.01,CLR,,0.01,796.0,WeatherDisplay:10.37,2013-03-22 17:09:00,
2013-03-22 12:14:00,27.6,11.4,30.12,SSW,199,1.8,4.6,50,0.01,CLR,,0.01,802.0,WeatherDisplay:10.37,2013-03-22 17:14:00,
2013-03-22 12:19:00,27.5,11.7,30.12,West,262,1.8,4.8,51,0.01,CLR,,0.01,803.0,WeatherDisplay:10.37,2013-03-22 17:19:00,
2013-03-22 12:24:00,27.6,11.8,30.12,WSW,251,2.5,4.6,51,0.01,CLR,,0.01,809.0,WeatherDisplay:10.37,2013-03-22 17:24:00,
2013-03-22 12:29:00,28.2,11.9,30.12,SW,217,3.3,7.2,50,0.01,CLR,,0.01,812.0,WeatherDisplay:10.37,2013-03-22 17:29:00,
2013-03-22 12:34:00,28.5,12.2,30.12,WNW,284,1.2,4.6,50,0.01,CLR,,0.01,814.0,WeatherDisplay:10.37,2013-03-22 17:34:00,
2013-03-22 12:39:00,29.0,12.7,30.12,NW,309,3.6,4.8,50,0.01,CLR,,0.01,817.0,WeatherDisplay:10.37,2013-03-22 17:39:00,
2013-03-22 12:44:00,29.1,12.3,30.12,WNW,292,1.0,1.2,49,0.01,CLR,,0.01,819.0,WeatherDisplay:10.37,2013-03-22 17:44:00,
2013-03-22 12:49:00,30.3,14.3,30.12,WNW,295,0.0,0.0,51,0.01,CLR,,0.01,819.0,WeatherDisplay:10.37,2013-03-22 17:49:00,
2013-03-22 12:54:00,30.6,12.7,30.12,South,170,4.7,6.0,47,0.01,CLR,,0.01,819.0,WeatherDisplay:10.37,2013-03-22 17:54:00,
2013-03-22 12:59:00,29.0,12.2,30.12,SW,219,3.3,6.0,49,0.00,CLR,,0.01,821.0,WeatherDisplay:10.37,2013-03-22 17:59:00,
2013-03-22 13:04:00,28.7,11.9,30.12,SSW,208,5.0,6.0,49,0.00,CLR,,0.01,821.0,WeatherDisplay:10.37,2013-03-22 18:04:00,
2013-03-22 13:09:00,29.0,12.2,30.12,SSW,213,0.7,3.6,49,0.00,CLR,,0.01,821.0,WeatherDisplay:10.37,2013-03-22 18:09:00,
2013-03-22 13:14:00,29.7,12.4,30.12,WSW,245,0.6,4.6,48,0.00,CLR,,0.01,817.0,WeatherDisplay:10.37,2013-03-22 18:14:00,
2013-03-22 13:19:00,29.5,12.2,30.11,South,177,2.2,3.5,48,0.00,CLR,,0.01,819.0,WeatherDisplay:10.37,2013-03-22 18:19:00,
2013-03-22 13:24:00,29.5,12.2,30.11,WNW,288,2.7,5.8,48,0.00,CLR,,0.01,816.0,WeatherDisplay:10.37,2013-03-22 18:24:00,
2013-03-22 13:29:00,30.0,12.2,30.11,WSW,257,2.2,4.6,47,0.00,CLR,,0.01,814.0,WeatherDisplay:10.37,2013-03-22 18:29:00,
2013-03-22 13:34:00,30.1,11.8,30.11,SW,232,0.0,1.2,46,0.01,RA,,0.02,812.0,WeatherDisplay:10.37,2013-03-22 18:34:00,
2013-03-22 13:39:00,30.6,12.2,30.11,SW,234,2.9,4.6,46,0.01,RA,,0.02,807.0,WeatherDisplay:10.37,2013-03-22 18:39:00,
2013-03-22 13:44:00,31.0,12.6,30.11,SW,234,0.0,0.0,46,0.01,CLR,,0.02,803.0,WeatherDisplay:10.37,2013-03-22 18:44:00,
2013-03-22 13:49:00,30.9,12.5,30.11,SSW,204,3.5,7.2,46,0.01,CLR,,0.02,800.0,WeatherDisplay:10.37,2013-03-22 18:49:00,
2013-03-22 13:54:00,30.7,12.3,30.11,SW,222,2.8,5.8,46,0.01,CLR,,0.02,796.0,WeatherDisplay:10.37,2013-03-22 18:54:00,
2013-03-22 13:59:00,31.0,12.1,30.11,South,172,2.2,4.6,45,0.01,CLR,,0.02,791.0,WeatherDisplay:10.37,2013-03-22 18:59:00,
2013-03-22 14:04:00,31.2,12.8,30.10,WSW,242,6.4,6.9,46,0.01,CLR,,0.02,788.0,WeatherDisplay:10.37,2013-03-22 19:04:00,
2013-03-22 14:09:00,31.9,11.9,30.10,SW,223,4.1,4.8,43,0.01,CLR,,0.02,782.0,WeatherDisplay:10.37,2013-03-22 19:09:00,
2013-03-22 14:14:00,31.6,12.2,30.10,SW,224,4.9,4.9,44,0.01,CLR,,0.02,777.0,WeatherDisplay:10.37,2013-03-22 19:14:00,
2013-03-22 14:19:00,31.6,11.6,30.10,WSW,250,1.5,3.5,43,0.01,CLR,,0.02,768.0,WeatherDisplay:10.37,2013-03-22 19:19:00,
2013-03-22 14:24:00,32.4,12.9,30.10,West,259,2.8,2.8,44,0.01,CLR,,0.02,763.0,WeatherDisplay:10.37,2013-03-22 19:24:00,
2013-03-22 14:29:00,32.4,12.4,30.10,South,178,2.3,4.6,43,0.01,CLR,,0.02,756.0,WeatherDisplay:10.37,2013-03-22 19:29:00,
2013-03-22 14:34:00,32.7,13.2,30.10,NW,311,0.0,2.3,44,0.00,CLR,,0.02,749.0,WeatherDisplay:10.37,2013-03-22 19:34:00,
2013-03-22 14:39:00,32.1,12.6,30.10,SSW,194,3.7,4.6,44,0.00,CLR,,0.02,740.0,WeatherDisplay:10.37,2013-03-22 19:39:00,
2013-03-22 14:44:00,32.4,12.9,30.10,SSW,208,3.2,6.9,44,0.00,CLR,,0.02,733.0,WeatherDisplay:10.37,2013-03-22 19:44:00,
2013-03-22 14:49:00,33.1,13.0,30.10,West,279,1.8,3.5,43,0.00,CLR,,0.02,724.0,WeatherDisplay:10.37,2013-03-22 19:49:00,
2013-03-22 14:54:00,33.8,13.1,30.10,WNW,290,0.4,2.4,42,0.00,CLR,,0.02,714.0,WeatherDisplay:10.37,2013-03-22 19:54:00,
2013-03-22 14:59:00,33.5,13.4,30.10,WSW,258,3.1,4.6,43,0.00,CLR,,0.02,705.0,WeatherDisplay:10.37,2013-03-22 19:59:00,
2013-03-22 15:04:00,33.1,11.9,30.09,West,269,5.0,5.8,41,0.00,CLR,,0.02,694.0,WeatherDisplay:10.37,2013-03-22 20:04:00,
2013-03-22 15:09:00,33.8,13.6,30.09,West,275,0.5,3.6,43,0.00,CLR,,0.02,684.0,WeatherDisplay:10.37,2013-03-22 20:09:00,
2013-03-22 15:14:00,33.7,13.0,30.09,West,261,3.9,4.8,42,0.00,CLR,,0.02,675.0,WeatherDisplay:10.37,2013-03-22 20:14:00,
2013-03-22 15:19:00,34.3,12.4,30.09,West,261,2.4,2.4,40,0.00,CLR,,0.02,664.0,WeatherDisplay:10.37,2013-03-22 20:19:00,
2013-03-22 15:24:00,33.5,12.8,30.09,WNW,285,3.8,6.0,42,0.00,CLR,,0.02,654.0,WeatherDisplay:10.37,2013-03-22 20:24:00,
2013-03-22 15:29:00,33.4,12.7,30.09,WSW,248,0.9,2.4,42,0.00,CLR,,0.02,640.0,WeatherDisplay:10.37,2013-03-22 20:29:00,
2013-03-22 15:34:00,33.5,11.7,30.09,West,271,1.5,3.5,40,0.00,CLR,,0.02,628.0,WeatherDisplay:10.37,2013-03-22 20:34:00,
2013-03-22 15:39:00,33.5,11.7,30.09,WSW,245,3.4,4.6,40,0.00,CLR,,0.02,617.0,WeatherDisplay:10.37,2013-03-22 20:39:00,
2013-03-22 15:44:00,34.1,12.3,30.09,South,189,1.7,4.6,40,0.00,CLR,,0.02,603.0,WeatherDisplay:10.37,2013-03-22 20:44:00,
2013-03-22 15:49:00,33.5,11.7,30.09,SW,228,7.4,7.4,40,0.00,CLR,,0.02,592.0,WeatherDisplay:10.37,2013-03-22 20:49:00,
2013-03-22 15:54:00,33.5,12.3,30.09,WSW,251,3.6,4.8,41,0.00,CLR,,0.02,578.0,WeatherDisplay:10.37,2013-03-22 20:54:00,
2013-03-22 15:59:00,33.7,11.9,30.10,WSW,237,7.3,8.1,40,0.00,CLR,,0.02,563.0,WeatherDisplay:10.37,2013-03-22 20:59:00,
2013-03-22 16:04:00,33.4,11.6,30.10,SW,221,6.4,8.1,40,0.01,RA,,0.03,550.0,WeatherDisplay:10.37,2013-03-22 21:04:00,
2013-03-22 16:09:00,34.1,12.3,30.10,WSW,251,1.1,4.8,40,0.01,RA,,0.03,536.0,WeatherDisplay:10.37,2013-03-22 21:09:00,
2013-03-22 16:14:00,34.6,13.3,30.10,West,262,3.0,4.6,41,0.01,CLR,,0.03,522.0,WeatherDisplay:10.37,2013-03-22 21:14:00,
2013-03-22 16:19:00,35.3,13.9,30.10,WSW,258,1.8,3.6,41,0.01,CLR,,0.03,508.0,WeatherDisplay:10.37,2013-03-22 21:19:00,
2013-03-22 16:24:00,35.0,13.1,30.10,SSW,207,6.4,8.1,40,0.01,CLR,,0.03,494.0,WeatherDisplay:10.37,2013-03-22 21:24:00,
2013-03-22 16:29:00,34.1,12.8,30.10,South,182,6.0,6.9,41,0.01,CLR,,0.03,480.0,WeatherDisplay:10.37,2013-03-22 21:29:00,
2013-03-22 16:34:00,34.3,13.0,30.10,SSW,207,6.5,7.2,41,0.01,CLR,,0.03,468.0,WeatherDisplay:10.37,2013-03-22 21:34:00,
2013-03-22 16:39:00,34.1,13.4,30.10,SSW,211,4.9,6.9,42,0.01,CLR,,0.03,450.0,WeatherDisplay:10.37,2013-03-22 21:39:00,
2013-03-22 16:44:00,34.4,13.1,30.10,WSW,240,5.4,6.0,41,0.01,CLR,,0.03,436.0,WeatherDisplay:10.37,2013-03-22 21:44:00,
2013-03-22 16:49:00,34.4,12.5,30.10,SSW,206,6.3,8.1,40,0.01,CLR,,0.03,420.0,WeatherDisplay:10.37,2013-03-22 21:49:00,
2013-03-22 16:54:00,34.1,12.3,30.10,SW,220,2.8,3.6,40,0.01,CLR,,0.03,406.0,WeatherDisplay:10.37,2013-03-22 21:54:00,
2013-03-22 16:59:00,34.3,11.9,30.11,South,190,6.8,6.9,39,0.01,CLR,,0.03,390.0,WeatherDisplay:10.37,2013-03-22 21:59:00,
2013-03-22 17:04:00,34.1,12.8,30.11,SW,226,4.8,6.0,41,0.00,CLR,,0.03,376.0,WeatherDisplay:10.37,2013-03-22 22:04:00,
2013-03-22 17:09:00,34.7,13.9,30.11,WSW,246,4.1,4.8,42,0.00,CLR,,0.03,359.0,WeatherDisplay:10.37,2013-03-22 22:09:00,
2013-03-22 17:14:00,34.4,12.0,30.11,SSW,194,3.7,4.6,39,0.00,CLR,,0.03,345.0,WeatherDisplay:10.37,2013-03-22 22:14:00,
2013-03-22 17:19:00,34.3,12.4,30.11,South,185,1.0,3.5,40,0.00,CLR,,0.03,329.0,WeatherDisplay:10.37,2013-03-22 22:19:00,
2013-03-22 17:24:00,34.4,12.5,30.11,South,182,3.1,4.6,40,0.00,CLR,,0.03,313.0,WeatherDisplay:10.37,2013-03-22 22:24:00,
2013-03-22 17:29:00,34.4,12.0,30.11,SSW,197,1.2,3.6,39,0.00,CLR,,0.03,297.0,WeatherDisplay:10.37,2013-03-22 22:29:00,
2013-03-22 17:34:00,35.2,13.3,30.11,WSW,258,0.0,0.0,40,0.00,CLR,,0.03,281.0,WeatherDisplay:10.37,2013-03-22 22:34:00,
2013-03-22 17:39:00,35.5,13.5,30.11,WSW,250,0.0,0.0,40,0.00,CLR,,0.03,255.0,WeatherDisplay:10.37,2013-03-22 22:39:00,
2013-03-22 17:44:00,35.5,13.0,30.11,SW,229,2.4,4.6,39,0.00,CLR,,0.03,211.0,WeatherDisplay:10.37,2013-03-22 22:44:00,
2013-03-22 17:49:00,35.3,12.8,30.11,SW,229,1.1,3.5,39,0.00,CLR,,0.03,155.0,WeatherDisplay:10.37,2013-03-22 22:49:00,
2013-03-22 17:54:00,35.2,12.1,30.11,SW,230,0.0,0.0,38,0.00,CLR,,0.03,163.0,WeatherDisplay:10.37,2013-03-22 22:54:00,
2013-03-22 17:59:00,35.6,12.5,30.11,SW,231,0.0,0.0,38,0.00,CLR,,0.03,139.0,WeatherDisplay:10.37,2013-03-22 22:59:00,
2013-03-22 18:04:00,35.5,12.4,30.11,SW,230,0.4,2.4,38,0.00,CLR,,0.03,114.0,WeatherDisplay:10.37,2013-03-22 23:04:00,
2013-03-22 18:09:00,35.3,12.2,30.11,SW,231,0.0,1.2,38,0.00,CLR,,0.03,86.0,WeatherDisplay:10.37,2013-03-22 23:09:00,
2013-03-22 18:14:00,35.0,11.9,30.11,SW,231,0.2,2.3,38,0.00,CLR,,0.03,63.0,WeatherDisplay:10.37,2013-03-22 23:14:00,
2013-03-22 18:19:00,35.0,11.3,30.11,SW,231,0.0,1.2,37,0.00,CLR,,0.03,63.0,WeatherDisplay:10.37,2013-03-22 23:19:00,
2013-03-22 18:24:00,34.6,12.7,30.11,SSW,210,0.1,2.4,40,0.00,CLR,,0.03,67.0,WeatherDisplay:10.37,2013-03-22 23:24:00,
2013-03-22 18:29:00,34.1,12.3,30.11,SSW,210,0.0,0.0,40,0.00,CLR,,0.03,44.0,WeatherDisplay:10.37,2013-03-22 23:29:00,
2013-03-22 18:34:00,33.7,12.5,30.11,SSW,202,0.8,4.6,41,0.00,CLR,,0.03,42.0,WeatherDisplay:10.37,2013-03-22 23:34:00,
2013-03-22 18:39:00,33.7,12.5,30.11,SSW,202,0.0,0.0,41,0.00,CLR,,0.03,35.0,WeatherDisplay:10.37,2013-03-22 23:39:00,
2013-03-22 18:44:00,33.7,12.5,30.10,SSW,202,0.0,0.0,41,0.00,CLR,,0.03,39.0,WeatherDisplay:10.37,2013-03-22 23:44:00,
2013-03-22 18:49:00,33.7,13.5,30.10,SSW,202,0.0,0.0,43,0.00,CLR,,0.03,19.0,WeatherDisplay:10.37,2013-03-22 23:49:00,
2013-03-22 18:54:00,33.5,12.8,30.10,SSW,202,0.0,0.0,42,0.00,CLR,,0.03,14.0,WeatherDisplay:10.37,2013-03-22 23:54:00,
2013-03-22 18:59:00,33.4,12.7,30.10,SSW,202,0.0,1.2,42,0.00,CLR,,0.03,11.0,WeatherDisplay:10.37,2013-03-22 23:59:00,
2013-03-22 19:04:00,33.1,12.5,30.10,SSW,202,0.0,0.0,42,0.00,CLR,,0.03,7.0,WeatherDisplay:10.37,2013-03-23 00:04:00,
2013-03-22 19:09:00,33.1,13.0,30.10,SSW,202,0.0,0.0,43,0.00,CLR,,0.03,5.0,WeatherDisplay:10.37,2013-03-23 00:09:00,
2013-03-22 19:14:00,32.8,12.7,30.10,SSW,202,0.0,0.0,43,0.00,CLR,,0.03,0.0,WeatherDisplay:10.37,2013-03-23 00:14:00,
2013-03-22 19:19:00,32.7,12.6,30.10,SSW,202,0.0,0.0,43,0.00,CLR,,0.03,0.0,WeatherDisplay:10.37,2013-03-23 00:19:00,
2013-03-22 19:24:00,32.2,12.7,30.10,SSW,202,0.0,0.0,44,0.00,CLR,,0.03,0.0,WeatherDisplay:10.37,2013-03-23 00:24:00,
2013-03-22 19:29:00,31.9,12.9,30.10,SSW,202,0.0,0.0,45,0.00,CLR,,0.03,0.0,WeatherDisplay:10.37,2013-03-23 00:29:00,
2013-03-22 19:34:00,31.6,13.2,30.10,SSW,202,0.0,0.0,46,0.00,CLR,,0.03,0.0,WeatherDisplay:10.37,2013-03-23 00:34:00,
2013-03-22 19:39:00,31.3,12.9,30.10,SSW,202,0.0,0.0,46,0.00,CLR,,0.03,0.0,WeatherDisplay:10.37,2013-03-23 00:39:00,
2013-03-22 19:44:00,31.0,13.1,30.10,SSW,202,0.0,0.0,47,0.00,CLR,,0.03,0.0,WeatherDisplay:10.37,2013-03-23 00:44:00,
2013-03-22 19:49:00,30.6,12.7,30.10,SSW,202,0.0,0.0,47,0.00,CLR,,0.03,0.0,WeatherDisplay:10.37,2013-03-23 00:49:00,
2013-03-22 19:54:00,30.3,12.9,30.10,SSW,202,0.0,0.0,48,0.00,CLR,,0.03,0.0,WeatherDisplay:10.37,2013-03-23 00:54:00,
2013-03-22 19:59:00,30.0,13.1,30.10,SSW,202,0.0,0.0,49,0.00,CLR,,0.03,0.0,WeatherDisplay:10.37,2013-03-23 00:59:00,
2013-03-22 20:04:00,29.7,13.3,30.10,SSW,202,0.0,0.0,50,0.00,CLR,,0.03,0.0,WeatherDisplay:10.37,2013-03-23 01:04:00,
2013-03-22 20:09:00,29.3,12.9,30.10,SSW,202,0.0,0.0,50,0.00,CLR,,0.03,0.0,WeatherDisplay:10.37,2013-03-23 01:09:00,
2013-03-22 20:14:00,29.0,13.1,30.10,SSW,202,0.0,0.0,51,0.00,CLR,,0.03,0.0,WeatherDisplay:10.37,2013-03-23 01:14:00,
2013-03-22 20:19:00,28.5,12.6,30.10,SSW,202,0.0,0.0,51,0.00,CLR,,0.03,0.0,WeatherDisplay:10.37,2013-03-23 01:19:00,
2013-03-22 20:24:00,28.2,12.4,30.10,SSW,202,0.0,0.0,51,0.00,CLR,,0.03,0.0,WeatherDisplay:10.37,2013-03-23 01:24:00,
2013-03-22 20:29:00,27.9,12.5,30.11,SSW,202,0.0,0.0,52,0.00,CLR,,0.03,0.0,WeatherDisplay:10.37,2013-03-23 01:29:00,
2013-03-22 20:34:00,27.5,12.6,30.11,SSW,202,0.0,0.0,53,0.00,CLR,,0.03,0.0,WeatherDisplay:10.37,2013-03-23 01:34:00,
2013-03-22 20:39:00,27.2,12.7,30.11,SSW,202,0.0,0.0,54,0.00,CLR,,0.03,0.0,WeatherDisplay:10.37,2013-03-23 01:39:00,
2013-03-22 20:44:00,26.9,12.9,30.11,SSW,202,0.0,0.0,55,0.00,CLR,,0.03,0.0,WeatherDisplay:10.37,2013-03-23 01:44:00,
2013-03-22 20:49:00,26.6,12.6,30.11,SSW,202,0.0,0.0,55,0.00,CLR,,0.03,0.0,WeatherDisplay:10.37,2013-03-23 01:49:00,
2013-03-22 20:54:00,26.4,13.2,30.11,SSW,202,0.0,0.0,57,0.00,CLR,,0.03,0.0,WeatherDisplay:10.37,2013-03-23 01:54:00,
2013-03-22 20:59:00,26.3,13.1,30.11,SSW,202,0.0,0.0,57,0.00,CLR,,0.03,0.0,WeatherDisplay:10.37,2013-03-23 01:59:00,
2013-03-22 21:04:00,26.1,12.9,30.11,SSW,202,0.0,0.0,57,0.00,CLR,,0.03,0.0,WeatherDisplay:10.37,2013-03-23 02:04:00,
2013-03-22 21:09:00,26.0,14.0,30.11,SSW,202,0.0,0.0,60,0.00,CLR,,0.03,0.0,WeatherDisplay:10.37,2013-03-23 02:09:00,
2013-03-22 21:14:00,25.8,13.8,30.11,SSW,202,0.0,0.0,60,0.00,CLR,,0.03,0.0,WeatherDisplay:10.37,2013-03-23 02:14:00,
2013-03-22 21:19:00,25.6,13.6,30.11,SSW,202,0.0,0.0,60,0.00,CLR,,0.03,0.0,WeatherDisplay:10.37,2013-03-23 02:19:00,
2013-03-22 21:24:00,25.3,13.7,30.11,SSW,202,0.0,0.0,61,0.00,CLR,,0.03,0.0,WeatherDisplay:10.37,2013-03-23 02:24:00,
2013-03-22 21:29:00,25.0,13.8,30.11,SSW,202,0.0,0.0,62,0.00,CLR,,0.03,0.0,WeatherDisplay:10.37,2013-03-23 02:29:00,
2013-03-22 21:34:00,24.7,13.5,30.11,SSW,202,0.0,0.0,62,0.00,CLR,,0.03,0.0,WeatherDisplay:10.37,2013-03-23 02:34:00,
2013-03-22 21:39:00,24.5,13.7,30.11,SSW,202,0.0,0.0,63,0.00,CLR,,0.03,0.0,WeatherDisplay:10.37,2013-03-23 02:39:00,
2013-03-22 21:44:00,24.2,13.4,30.11,SSW,202,0.0,0.0,63,0.00,CLR,,0.03,0.0,WeatherDisplay:10.37,2013-03-23 02:44:00,
2013-03-22 21:49:00,23.9,13.1,30.11,SSW,202,0.0,0.0,63,0.00,CLR,,0.03,0.0,WeatherDisplay:10.37,2013-03-23 02:49:00,
2013-03-22 21:54:00,23.6,12.8,30.11,SSW,202,0.0,0.0,63,0.00,CLR,,0.03,0.0,WeatherDisplay:10.37,2013-03-23 02:54:00,
2013-03-22 21:59:00,23.5,13.5,30.11,SSW,202,0.0,0.0,65,0.00,CLR,,0.03,0.0,WeatherDisplay:10.37,2013-03-23 02:59:00,
2013-03-22 22:04:00,23.3,14.0,30.11,SSW,202,0.0,0.0,67,0.00,CLR,,0.03,0.0,WeatherDisplay:10.37,2013-03-23 03:04:00,
2013-03-22 22:09:00,23.2,13.9,30.11,SSW,202,0.0,0.0,67,0.00,CLR,,0.03,0.0,WeatherDisplay:10.37,2013-03-23 03:09:00,
2013-03-22 22:14:00,23.0,14.0,30.11,SSW,202,0.0,0.0,68,0.00,CLR,,0.03,0.0,WeatherDisplay:10.37,2013-03-23 03:14:00,
2013-03-22 22:19:00,23.0,14.0,30.11,SSW,202,0.0,0.0,68,0.00,CLR,,0.03,0.0,WeatherDisplay:10.37,2013-03-23 03:19:00,
2013-03-22 22:24:00,23.0,14.0,30.11,SSW,202,0.0,0.0,68,0.00,CLR,,0.03,0.0,WeatherDisplay:10.37,2013-03-23 03:24:00,
2013-03-22 22:29:00,23.2,14.5,30.12,SSW,202,1.0,2.4,69,0.00,CLR,,0.03,0.0,WeatherDisplay:10.37,2013-03-23 03:29:00,
2013-03-22 22:34:00,23.2,14.5,30.12,SSW,202,0.0,0.0,69,0.00,CLR,,0.03,0.0,WeatherDisplay:10.37,2013-03-23 03:34:00,
2013-03-22 22:39:00,23.3,15.0,30.12,SSW,202,0.0,0.0,70,0.00,CLR,,0.03,0.0,WeatherDisplay:10.37,2013-03-23 03:39:00,
2013-03-22 22:44:00,23.3,15.0,30.12,SSW,202,0.0,0.0,70,0.00,CLR,,0.03,0.0,WeatherDisplay:10.37,2013-03-23 03:44:00,
2013-03-22 22:49:00,23.2,14.5,30.12,SSW,202,0.0,0.0,69,0.00,CLR,,0.03,0.0,WeatherDisplay:10.37,2013-03-23 03:49:00,
2013-03-22 22:54:00,23.0,14.3,30.12,SSW,202,0.0,0.0,69,0.00,CLR,,0.03,0.0,WeatherDisplay:10.37,2013-03-23 03:54:00,
2013-03-22 22:59:00,22.9,14.2,30.12,SSW,202,0.0,0.0,69,0.00,CLR,,0.03,0.0,WeatherDisplay:10.37,2013-03-23 03:59:00,
2013-03-22 23:00:00,22.9,14.2,30.12,SSW,202,0.0,0.0,69,0.00,CLR,,0.03,0.0,WeatherDisplay:10.37,2013-03-23 04:00:00,
2013-03-22 23:01:00,22.7,14.4,30.12,SSW,202,0.0,0.0,70,0.00,CLR,,0.03,0.0,WeatherDisplay:10.37,2013-03-23 04:01:00,
2013-03-22 23:06:00,22.4,14.1,30.12,SSW,202,0.0,0.0,70,0.00,CLR,,0.03,0.0,WeatherDisplay:10.37,2013-03-23 04:06:00,
2013-03-22 23:11:00,22.4,13.8,30.12,SSW,202,0.0,0.0,69,0.00,CLR,,0.03,0.0,WeatherDisplay:10.37,2013-03-23 04:11:00,
2013-03-22 23:16:00,22.4,13.8,30.12,SSW,202,0.0,0.0,69,0.00,CLR,,0.03,0.0,WeatherDisplay:10.37,2013-03-23 04:16:00,
2013-03-22 23:21:00,22.2,13.6,30.12,SSW,202,0.0,0.0,69,0.00,CLR,,0.03,0.0,WeatherDisplay:10.37,2013-03-23 04:21:00,
2013-03-22 23:27:00,21.6,13.3,30.12,SSW,202,0.0,0.0,70,0.00,CLR,,0.03,0.0,WeatherDisplay:10.37,2013-03-23 04:27:00,
2013-03-22 23:32:00,21.1,13.2,30.12,SSW,202,0.0,0.0,71,0.00,CLR,,0.03,0.0,WeatherDisplay:10.37,2013-03-23 04:32:00,
2013-03-22 23:37:00,20.6,13.0,30.12,SSW,202,0.0,0.0,72,0.00,CLR,,0.04,0.0,WeatherDisplay:10.37,2013-03-23 04:37:00,
2013-03-22 23:42:00,20.2,12.7,30.12,SSW,202,0.0,0.0,72,0.00,CLR,,0.04,0.0,WeatherDisplay:10.37,2013-03-23 04:42:00,
2013-03-22 23:47:00,20.0,12.4,30.12,SSW,202,0.0,0.0,72,0.00,CLR,,0.04,0.0,WeatherDisplay:10.37,2013-03-23 04:47:00,
2013-03-22 23:52:00,19.9,12.6,30.12,SSW,202,0.0,0.0,73,0.00,CLR,,0.04,0.0,WeatherDisplay:10.37,2013-03-23 04:52:00,
2013-03-22 23:57:00,19.7,12.4,30.12,SSW,202,0.0,0.0,73,0.00,CLR,,0.03,0.0,WeatherDisplay:10.37,2013-03-23 04:57:00,